X  Blizu METAR Podaci o vazduhoplovstvu     KDNN Dalton Municipal Airport
Temperatura
13°C Temperatura
-5°C Tačka Rose
28% Vlaga



Vetar
10 KM/S
6 MPS
3 M/S
5 Čvorovi



150°
JJI
Trenutna situacija

Izmaglica Izmaglica
Vazdušni pritisak 1018.29 (hPa) - 30.07 (inHg)
Vidljivost 1.2 (Milje) - 2 (km)
Aerodrom
Aerodromski kod. KDNN

Lokacija: Dalton Municipal Airport
Udaljenost: 34 (km)

Metar:
KDNN 260135Z AUTO 15005KT 1 1/4SM HZ FEW100 13/M05 A3007 RMK AO2 T01301046

Vreme: 02-25-2024 20:35 EST